Time;durP1;ratioP1;P1;durP2;ratioP2;P2;SDS_P1;SDS_P2;PMS_P1;PMS_P2;Temp;Humidity;BMP_temperature;BMP_pressure;BME280_temperature;BME280_humidity;BME280_pressure;Samples;Min_cycle;Max_cycle;Signal;HPM_P1;HPM_P2
2021/12/26 00:41:39;;;;;;;5.97;3.23;;;;;;;;;;6128534;23;94744;-80
2021/12/26 00:48:04;;;;;;;4.17;3.27;;;;;;;;;;6142316;22;92320;-81
2021/12/26 00:50:51;;;;;;;5.57;3.07;;;;;;;;;;6142029;23;92877;-81
2021/12/26 00:53:43;;;;;;;7.37;3.10;;;;;;;;;;6140211;23;92406;-81
2021/12/26 00:56:30;;;;;;;3.93;2.93;;;;;;;;;;6142079;23;92184;-80
2021/12/26 01:03:00;;;;;;;4.60;2.90;;;;;;;;;;6142620;22;92438;-80
2021/12/26 01:05:48;;;;;;;5.30;2.90;;;;;;;;;;6138393;23;92510;-80
2021/12/26 01:12:30;;;;;;;7.47;3.60;;;;;;;;;;6134084;22;92304;-80
2021/12/26 01:15:18;;;;;;;4.80;3.17;;;;;;;;;;6116690;23;92166;-80
2021/12/26 01:18:17;;;;;;;4.43;2.87;;;;;;;;;;6148003;23;92185;-80
2021/12/26 01:21:16;;;;;;;5.43;3.30;;;;;;;;;;6133388;23;92130;-81
2021/12/26 01:24:13;;;;;;;3.83;2.80;;;;;;;;;;6132319;23;92212;-80
2021/12/26 01:27:00;;;;;;;5.50;3.70;;;;;;;;;;6130029;23;93694;-80
2021/12/26 01:30:07;;;;;;;4.10;2.87;;;;;;;;;;6132838;23;92412;-80
2021/12/26 01:32:54;;;;;;;3.77;2.60;;;;;;;;;;6136223;23;92246;-80
2021/12/26 01:39:09;;;;;;;8.10;3.30;;;;;;;;;;6136388;22;94636;-80
2021/12/26 01:42:01;;;;;;;6.77;2.83;;;;;;;;;;6134261;23;94646;-80
2021/12/26 01:44:49;;;;;;;6.90;3.60;;;;;;;;;;6136267;23;92187;-80
2021/12/26 01:47:36;;;;;;;9.70;3.40;;;;;;;;;;6136987;23;92556;-81
2021/12/26 01:50:28;;;;;;;6.90;3.67;;;;;;;;;;6136682;23;92483;-80
2021/12/26 01:53:15;;;;;;;6.27;2.80;;;;;;;;;;6136141;23;92337;-80
2021/12/26 01:59:29;;;;;;;7.07;3.17;;;;;;;;;;6132865;22;91596;-80
2021/12/26 02:02:16;;;;;;;3.97;3.17;;;;;;;;;;6131399;23;92610;-81
2021/12/26 02:05:08;;;;;;;5.63;3.30;;;;;;;;;;6131865;23;92423;-80
2021/12/26 02:07:54;;;;;;;3.37;2.83;;;;;;;;;;6131486;23;94633;-80
2021/12/26 02:10:44;;;;;;;4.40;2.73;;;;;;;;;;6131206;23;92333;-80
2021/12/26 02:13:33;;;;;;;4.33;3.00;;;;;;;;;;6134495;23;92456;-80
2021/12/26 02:20:07;;;;;;;4.73;2.40;;;;;;;;;;6136163;23;92197;-80
2021/12/26 02:22:59;;;;;;;4.37;2.30;;;;;;;;;;6131827;23;92259;-80
2021/12/26 03:48:24;;;;;;;2.93;1.50;;;;;;;;;;6140948;22;94768;-80
2021/12/26 03:51:11;;;;;;;2.73;1.87;;;;;;;;;;6130220;23;93648;-80
2021/12/26 04:01:21;;;;;;;3.33;1.50;;;;;;;;;;6136746;22;92562;-80
2021/12/26 04:04:08;;;;;;;2.60;1.67;;;;;;;;;;6134858;23;92254;-80
2021/12/26 04:10:23;;;;;;;2.60;1.90;;;;;;;;;;6136667;22;91397;-80
2021/12/26 04:13:09;;;;;;;3.93;1.70;;;;;;;;;;6130943;23;92447;-80
2021/12/26 04:16:00;;;;;;;3.93;1.70;;;;;;;;;;6132829;23;92246;-80
2021/12/26 04:18:47;;;;;;;3.83;1.90;;;;;;;;;;6129004;23;94595;-80
2021/12/26 04:21:34;;;;;;;3.20;1.90;;;;;;;;;;6133434;23;92170;-80
2021/12/26 04:24:21;;;;;;;2.47;1.80;;;;;;;;;;6133347;23;92557;-80
2021/12/26 04:27:15;;;;;;;3.60;2.13;;;;;;;;;;6129645;23;92407;-79
2021/12/26 04:30:04;;;;;;;3.27;2.30;;;;;;;;;;6133593;23;92238;-79
2021/12/26 04:36:18;;;;;;;3.00;2.03;;;;;;;;;;6149869;22;92293;-80
2021/12/26 04:46:02;;;;;;;3.57;2.13;;;;;;;;;;6136930;22;92290;-80
2021/12/26 05:28:06;;;;;;;2.67;1.80;;;;;;;;;;6134622;22;120995;-80
2021/12/26 05:30:53;;;;;;;3.47;1.93;;;;;;;;;;6132915;23;92268;-81
2021/12/26 05:34:02;;;;;;;2.93;1.90;;;;;;;;;;6131894;23;92192;-80
2021/12/26 05:36:49;;;;;;;4.50;2.63;;;;;;;;;;6133413;23;92326;-80
2021/12/26 05:40:03;;;;;;;3.83;1.80;;;;;;;;;;6130463;23;92661;-80
2021/12/26 05:42:50;;;;;;;3.03;1.90;;;;;;;;;;6112288;23;92336;-80
2021/12/26 05:49:17;;;;;;;3.40;2.37;;;;;;;;;;6134029;22;92169;-80
2021/12/26 05:52:04;;;;;;;4.57;2.60;;;;;;;;;;6129754;23;94971;-80
2021/12/26 05:55:03;;;;;;;2.50;2.10;;;;;;;;;;6131462;23;94657;-80
2021/12/26 05:57:49;;;;;;;4.50;2.30;;;;;;;;;;6128369;23;92208;-80
2021/12/26 06:01:07;;;;;;;3.87;2.67;;;;;;;;;;6131779;23;92146;-79
2021/12/26 06:03:54;;;;;;;3.00;2.20;;;;;;;;;;6110091;23;92458;-80
2021/12/26 06:10:08;;;;;;;4.30;3.30;;;;;;;;;;6132852;22;92184;-80
2021/12/26 06:16:23;;;;;;;3.33;2.33;;;;;;;;;;6141754;22;92815;-79
2021/12/26 06:19:10;;;;;;;4.20;2.67;;;;;;;;;;6131915;23;92176;-80
2021/12/26 06:22:34;;;;;;;5.20;3.27;;;;;;;;;;6129573;23;95095;-79
2021/12/26 06:25:21;;;;;;;3.50;2.50;;;;;;;;;;6113461;23;92335;-79
2021/12/26 06:28:08;;;;;;;3.10;2.73;;;;;;;;;;6102922;23;92590;-79
2021/12/26 06:30:54;;;;;;;5.60;3.50;;;;;;;;;;6099900;23;92261;-79
2021/12/26 06:34:02;;;;;;;4.80;3.13;;;;;;;;;;6102531;23;92135;-79
2021/12/26 06:36:49;;;;;;;5.13;3.30;;;;;;;;;;6102144;23;92242;-79
2021/12/26 06:39:37;;;;;;;4.70;2.80;;;;;;;;;;6101654;23;92572;-79
2021/12/26 06:42:24;;;;;;;5.23;3.20;;;;;;;;;;6100068;23;91563;-79
2021/12/26 06:45:18;;;;;;;5.00;3.00;;;;;;;;;;6101546;23;92187;-79
2021/12/26 06:48:06;;;;;;;6.33;3.30;;;;;;;;;;6102586;23;92165;-79
2021/12/26 06:51:02;;;;;;;5.63;2.50;;;;;;;;;;6099934;23;95020;-80
2021/12/26 06:53:49;;;;;;;5.10;3.43;;;;;;;;;;6101333;23;94870;-79
2021/12/26 07:13:51;;;;;;;4.63;3.20;;;;;;;;;;6102363;23;91531;-80
2021/12/26 10:46:26;;;;;;;9.10;6.83;;;;;;;;;;6183538;22;113546;-80
2021/12/26 10:49:22;;;;;;;8.47;6.20;;;;;;;;;;6081651;23;92340;-80
2021/12/26 10:52:33;;;;;;;8.50;6.47;;;;;;;;;;6083964;23;92720;-80
2021/12/26 10:55:47;;;;;;;25.40;13.50;;;;;;;;;;6108114;23;91429;-79
2021/12/26 10:59:05;;;;;;;37.33;20.63;;;;;;;;;;6082445;23;92262;-79
2021/12/26 11:01:54;;;;;;;24.20;12.83;;;;;;;;;;6079781;23;92282;-80
2021/12/26 11:11:55;;;;;;;14.60;8.90;;;;;;;;;;6098080;23;92281;-80
2021/12/26 11:15:03;;;;;;;16.80;9.90;;;;;;;;;;6075435;23;92276;-80
2021/12/26 11:21:23;;;;;;;8.47;7.30;;;;;;;;;;6098163;23;92236;-80
2021/12/26 11:24:10;;;;;;;14.60;7.30;;;;;;;;;;6098379;23;92201;-80
2021/12/26 11:40:51;;;;;;;10.77;6.83;;;;;;;;;;6098200;23;92333;-80
2021/12/26 11:43:50;;;;;;;9.17;6.40;;;;;;;;;;6074006;23;92535;-80
2021/12/26 14:44:19;;;;;;;15.40;12.33;;;;;;;;;;6148138;22;93268;-80
2021/12/26 14:47:11;;;;;;;15.20;11.30;;;;;;;;;;6097209;23;92481;-80
2021/12/26 15:00:31;;;;;;;15.90;11.93;;;;;;;;;;6097667;23;92554;-80
2021/12/26 15:03:22;;;;;;;14.80;11.47;;;;;;;;;;6096820;23;92465;-80
2021/12/26 15:06:29;;;;;;;15.50;11.70;;;;;;;;;;6074765;23;92242;-80
2021/12/26 15:09:39;;;;;;;15.07;11.63;;;;;;;;;;6098896;23;92224;-80
2021/12/26 15:16:01;;;;;;;15.87;11.37;;;;;;;;;;6098218;23;92524;-79
2021/12/26 15:19:01;;;;;;;14.70;12.10;;;;;;;;;;6076502;23;92219;-79
2021/12/26 15:22:04;;;;;;;16.80;11.83;;;;;;;;;;6097114;23;92299;-80
2021/12/26 15:31:53;;;;;;;15.40;12.23;;;;;;;;;;6101968;23;92299;-80
2021/12/26 15:34:41;;;;;;;18.37;11.77;;;;;;;;;;6099260;23;92238;-80
2021/12/26 16:47:32;;;;;;;20.77;15.40;;;;;;;;;;6147579;22;92441;-80
2021/12/26 16:50:18;;;;;;;23.67;16.17;;;;;;;;;;6102177;23;92105;-78
2021/12/26 16:53:27;;;;;;;19.73;15.93;;;;;;;;;;6075172;23;91409;-80
2021/12/26 16:56:14;;;;;;;24.07;15.90;;;;;;;;;;6076183;23;92398;-80
2021/12/26 16:59:18;;;;;;;25.10;19.07;;;;;;;;;;6097056;23;92276;-79
2021/12/26 17:02:05;;;;;;;28.33;19.77;;;;;;;;;;6072100;23;94675;-80
2021/12/26 17:08:30;;;;;;;29.73;19.97;;;;;;;;;;6097942;23;92556;-80
2021/12/26 17:11:17;;;;;;;29.03;21.17;;;;;;;;;;6097715;23;92513;-80
2021/12/26 17:14:36;;;;;;;29.00;20.53;;;;;;;;;;6079624;23;92317;-80
2021/12/26 17:17:23;;;;;;;24.30;19.10;;;;;;;;;;6076463;23;92320;-80
2021/12/26 17:20:16;;;;;;;22.10;17.67;;;;;;;;;;6099146;23;92677;-80
2021/12/26 17:23:05;;;;;;;23.60;16.67;;;;;;;;;;6099516;23;92499;-80
2021/12/26 17:26:15;;;;;;;21.20;16.50;;;;;;;;;;6099119;23;92188;-79
2021/12/26 17:29:06;;;;;;;23.37;17.07;;;;;;;;;;6097646;23;92314;-80
2021/12/26 17:31:53;;;;;;;25.13;18.77;;;;;;;;;;6078873;23;95051;-79
2021/12/26 17:34:40;;;;;;;29.80;19.47;;;;;;;;;;6100673;23;93791;-79
2021/12/26 17:37:26;;;;;;;29.03;19.53;;;;;;;;;;6100750;23;92227;-80
2021/12/26 17:40:13;;;;;;;32.80;21.63;;;;;;;;;;6084487;23;92333;-80
2021/12/26 17:43:00;;;;;;;32.83;22.03;;;;;;;;;;6082075;23;92489;-80
2021/12/26 17:45:47;;;;;;;32.20;22.67;;;;;;;;;;6100831;23;92563;-80
2021/12/26 18:45:23;;;;;;;23.23;17.93;;;;;;;;;;6147541;23;92526;-81
2021/12/26 18:55:08;;;;;;;23.67;17.30;;;;;;;;;;6129037;22;92267;-80
2021/12/26 18:57:55;;;;;;;21.40;16.87;;;;;;;;;;6127911;23;92253;-80
2021/12/26 19:15:01;;;;;;;18.07;14.20;;;;;;;;;;6129114;22;92231;-81
2021/12/26 19:17:49;;;;;;;19.83;14.87;;;;;;;;;;6105451;23;92603;-81
2021/12/26 19:31:39;;;;;;;21.07;15.50;;;;;;;;;;6128996;22;92502;-81
2021/12/26 19:34:29;;;;;;;21.87;15.00;;;;;;;;;;6127235;23;92533;-81
